createdAt,value
2023-03-25T00:02:23.397Z,9.20
2023-03-25T00:04:51.650Z,9.25
2023-03-25T00:07:19.727Z,9.26
2023-03-25T00:09:47.801Z,9.29
2023-03-25T00:12:16.958Z,9.31
2023-03-25T00:14:54.154Z,9.35
2023-03-25T00:17:22.183Z,9.37
2023-03-25T00:19:50.572Z,9.35
2023-03-25T00:22:18.175Z,9.35
2023-03-25T00:24:44.811Z,9.28
2023-03-25T00:27:11.193Z,9.33
2023-03-25T00:29:37.645Z,9.31
2023-03-25T00:32:04.284Z,9.30
2023-03-25T00:34:30.733Z,9.31
2023-03-25T00:36:57.392Z,9.30
2023-03-25T00:39:23.943Z,9.33
2023-03-25T00:41:54.323Z,9.36
2023-03-25T00:44:22.409Z,9.38
2023-03-25T00:46:49.188Z,9.37
2023-03-25T00:49:15.779Z,9.34
2023-03-25T00:51:53.181Z,9.30
2023-03-25T00:54:22.400Z,9.34
2023-03-25T00:56:50.311Z,9.17
2023-03-25T00:59:16.923Z,9.34
2023-03-25T01:01:43.502Z,9.31
2023-03-25T01:04:12.870Z,9.29
2023-03-25T01:06:51.795Z,9.29
2023-03-25T01:09:19.763Z,9.17
2023-03-25T01:11:47.342Z,9.26
2023-03-25T01:14:24.230Z,9.28
2023-03-25T01:16:51.179Z,9.25
2023-03-25T01:19:17.910Z,9.24
2023-03-25T01:21:45.283Z,9.24
2023-03-25T01:24:14.524Z,9.22
2023-03-25T01:26:43.584Z,9.23
2023-03-25T01:29:14.581Z,9.21
2023-03-25T01:31:41.307Z,9.18
2023-03-25T01:34:08.637Z,9.17
2023-03-25T01:36:37.400Z,9.17
2023-03-25T01:39:05.642Z,9.19
2023-03-25T01:41:46.829Z,9.18
2023-03-25T01:44:37.601Z,9.16
2023-03-25T01:47:06.736Z,9.17
2023-03-25T01:49:44.393Z,9.16
2023-03-25T01:52:17.352Z,9.16
2023-03-25T01:54:45.616Z,9.16
2023-03-25T01:57:18.068Z,9.15
2023-03-25T01:59:44.813Z,9.20
2023-03-25T02:02:15.656Z,9.26
2023-03-25T02:05:00.245Z,9.30
2023-03-25T02:07:31.105Z,9.34
2023-03-25T02:10:02.061Z,9.37
2023-03-25T02:12:28.968Z,9.44
2023-03-25T02:14:57.419Z,9.47
2023-03-25T02:17:29.314Z,9.32
2023-03-25T02:20:20.279Z,9.54
2023-03-25T02:23:09.747Z,9.55
2023-03-25T02:26:07.506Z,9.57
2023-03-25T02:28:48.640Z,9.58
2023-03-25T02:31:39.815Z,9.51
2023-03-25T02:34:44.090Z,9.57
2023-03-25T02:37:51.418Z,9.56
2023-03-25T02:40:38.431Z,9.56
2023-03-25T02:43:17.249Z,9.55
2023-03-25T02:45:51.904Z,9.54
2023-03-25T02:48:44.680Z,9.53
2023-03-25T02:51:17.673Z,9.49
2023-03-25T02:53:46.271Z,9.46
2023-03-25T02:56:15.911Z,9.42
2023-03-25T02:58:44.408Z,9.27
2023-03-25T03:01:14.847Z,9.39
2023-03-25T03:03:41.520Z,9.39
2023-03-25T03:06:08.621Z,9.38
2023-03-25T03:08:50.576Z,9.39
2023-03-25T03:11:32.407Z,9.38
2023-03-25T03:14:31.342Z,9.38
2023-03-25T03:17:18.423Z,9.40
2023-03-25T03:19:52.659Z,9.38
2023-03-25T03:22:39.500Z,9.38
2023-03-25T03:25:24.189Z,9.37
2023-03-25T03:28:06.994Z,9.36
2023-03-25T03:30:54.338Z,9.36
2023-03-25T03:33:40.942Z,9.21
2023-03-25T03:36:10.565Z,9.26
2023-03-25T03:38:43.942Z,9.27
2023-03-25T03:41:13.371Z,9.23
2023-03-25T03:43:52.024Z,9.21
2023-03-25T03:46:28.766Z,9.28
2023-03-25T03:48:57.933Z,9.23
2023-03-25T03:51:31.377Z,9.17
2023-03-25T03:54:05.957Z,9.11
2023-03-25T03:56:41.294Z,8.94
2023-03-25T03:59:13.336Z,9.00
2023-03-25T04:01:47.860Z,8.95
2023-03-25T04:04:20.320Z,8.93
2023-03-25T04:07:04.746Z,8.91
2023-03-25T04:10:02.810Z,8.85
2023-03-25T04:12:32.839Z,8.74
2023-03-25T04:15:04.074Z,8.77
2023-03-25T04:17:32.992Z,8.71
2023-03-25T04:20:00.547Z,8.69
2023-03-25T04:22:27.444Z,8.52
2023-03-25T04:24:55.038Z,8.61
2023-03-25T04:27:23.178Z,8.46
2023-03-25T04:29:51.956Z,8.57
2023-03-25T04:32:19.245Z,8.52
2023-03-25T04:34:46.990Z,8.49
2023-03-25T04:37:14.005Z,8.43
2023-03-25T04:39:40.502Z,8.25
2023-03-25T04:42:06.971Z,8.33
2023-03-25T04:44:39.348Z,8.28
2023-03-25T04:47:07.532Z,8.26
2023-03-25T04:49:33.948Z,8.23
2023-03-25T04:52:02.210Z,8.19
2023-03-25T04:54:28.617Z,8.17
2023-03-25T04:56:55.249Z,8.16
2023-03-25T04:59:23.132Z,8.09
2023-03-25T05:01:49.992Z,8.06
2023-03-25T05:04:17.741Z,8.12
2023-03-25T05:06:50.506Z,8.14
2023-03-25T05:09:20.028Z,8.16
2023-03-25T05:11:47.004Z,8.18
2023-03-25T05:14:16.003Z,8.22
2023-03-25T05:16:43.235Z,8.25
2023-03-25T05:19:09.885Z,8.29
2023-03-25T05:21:38.057Z,8.20
2023-03-25T05:24:08.449Z,8.34
2023-03-25T05:26:39.673Z,8.37
2023-03-25T05:29:14.723Z,8.29
2023-03-25T05:31:44.414Z,8.39
2023-03-25T05:34:10.995Z,8.35
2023-03-25T05:36:37.555Z,8.35
2023-03-25T05:39:05.435Z,8.33
2023-03-25T05:41:39.096Z,8.27
2023-03-25T05:44:10.391Z,8.24
2023-03-25T05:46:36.831Z,8.19
2023-03-25T05:49:03.394Z,8.15
2023-03-25T05:51:37.799Z,8.15
2023-03-25T05:54:10.536Z,8.05
2023-03-25T05:56:37.406Z,8.07
2023-03-25T05:59:03.931Z,8.06
2023-03-25T06:01:33.354Z,8.06
2023-03-25T06:04:01.794Z,7.92
2023-03-25T06:06:28.667Z,8.02
2023-03-25T06:08:55.847Z,8.01
2023-03-25T06:11:22.419Z,8.02
2023-03-25T06:13:51.976Z,7.92
2023-03-25T06:16:27.402Z,7.91
2023-03-25T06:18:59.438Z,7.94
2023-03-25T06:21:27.544Z,7.92
2023-03-25T06:23:54.757Z,7.84
2023-03-25T06:26:22.698Z,8.05
2023-03-25T06:28:49.216Z,8.03
2023-03-25T06:31:17.959Z,8.04
2023-03-25T06:33:45.222Z,7.99
2023-03-25T06:36:13.422Z,8.05
2023-03-25T06:38:40.267Z,7.91
2023-03-25T06:41:07.531Z,7.95
2023-03-25T06:43:34.853Z,8.02
2023-03-25T06:46:01.346Z,7.94
2023-03-25T06:48:27.784Z,8.06
2023-03-25T06:50:54.383Z,7.91
2023-03-25T06:53:21.263Z,8.12
2023-03-25T06:55:48.104Z,8.16
2023-03-25T06:58:14.590Z,8.19
2023-03-25T07:00:41.295Z,8.24
2023-03-25T07:03:09.991Z,8.27
2023-03-25T07:05:36.704Z,8.19
2023-03-25T07:08:03.219Z,8.42
2023-03-25T07:10:30.984Z,8.47
2023-03-25T07:12:57.583Z,8.54
2023-03-25T07:15:24.188Z,8.64
2023-03-25T07:17:51.283Z,8.71
2023-03-25T07:20:18.411Z,8.75
2023-03-25T07:22:46.557Z,8.92
2023-03-25T07:25:14.163Z,8.94
2023-03-25T07:27:40.747Z,8.92
2023-03-25T07:30:08.282Z,8.94
2023-03-25T07:32:34.680Z,8.98
2023-03-25T07:35:01.144Z,9.06
2023-03-25T07:37:27.536Z,9.00
2023-03-25T07:39:54.042Z,9.33
2023-03-25T07:42:20.721Z,9.29
2023-03-25T07:44:47.251Z,9.49
2023-03-25T07:47:13.742Z,9.66
2023-03-25T07:49:44.172Z,9.76
2023-03-25T07:52:10.859Z,9.90
2023-03-25T07:54:38.333Z,10.04
2023-03-25T07:57:04.912Z,10.18
2023-03-25T07:59:31.467Z,10.24
2023-03-25T08:01:59.011Z,10.25
2023-03-25T08:04:25.930Z,10.28
2023-03-25T08:06:52.471Z,10.25
2023-03-25T08:09:18.976Z,10.24
2023-03-25T08:11:46.020Z,10.14
2023-03-25T08:14:12.545Z,10.13
2023-03-25T08:16:39.093Z,10.20
2023-03-25T08:19:05.576Z,10.36
2023-03-25T08:21:32.103Z,10.38
2023-03-25T08:24:02.205Z,10.43
2023-03-25T08:26:29.557Z,10.30
2023-03-25T08:28:57.862Z,10.54
2023-03-25T08:31:25.171Z,10.72
2023-03-25T08:33:51.616Z,10.83
2023-03-25T08:36:23.151Z,11.00
2023-03-25T08:38:50.436Z,11.10
2023-03-25T08:41:17.886Z,11.43
2023-03-25T08:43:45.215Z,11.61
2023-03-25T08:46:11.955Z,11.70
2023-03-25T08:48:38.419Z,11.77
2023-03-25T08:51:06.201Z,11.71
2023-03-25T08:53:32.813Z,11.67
2023-03-25T08:55:59.519Z,11.56
2023-03-25T08:58:26.621Z,11.72
2023-03-25T09:00:55.659Z,11.74
2023-03-25T09:03:23.414Z,11.78
2023-03-25T09:05:50.464Z,11.82
2023-03-25T09:08:17.154Z,11.92
2023-03-25T09:10:43.730Z,11.94
2023-03-25T09:13:10.418Z,11.85
2023-03-25T09:15:37.077Z,11.69
2023-03-25T09:18:03.774Z,11.51
2023-03-25T09:20:30.315Z,11.37
2023-03-25T09:22:56.756Z,11.23
2023-03-25T09:25:23.297Z,11.12
2023-03-25T09:27:49.820Z,11.12
2023-03-25T09:30:16.445Z,11.17
2023-03-25T09:32:44.644Z,11.39
2023-03-25T09:35:11.105Z,11.51
2023-03-25T09:37:37.756Z,11.74
2023-03-25T09:40:05.230Z,11.91
2023-03-25T09:42:44.299Z,11.91
2023-03-25T09:45:26.528Z,11.88
2023-03-25T09:48:09.248Z,11.51
2023-03-25T09:50:36.933Z,11.74
2023-03-25T09:53:29.407Z,11.82
2023-03-25T09:55:56.184Z,11.63
2023-03-25T09:58:33.841Z,11.49
2023-03-25T10:01:12.503Z,11.43
2023-03-25T10:04:03.729Z,11.46
2023-03-25T10:06:32.644Z,11.49
2023-03-25T10:09:02.195Z,11.63
2023-03-25T10:11:49.405Z,12.00
2023-03-25T10:14:27.903Z,12.39
2023-03-25T10:16:57.377Z,12.53
2023-03-25T10:20:05.616Z,12.79
2023-03-25T10:22:51.541Z,13.24
2023-03-25T10:25:20.891Z,13.21
2023-03-25T10:27:51.459Z,13.42
2023-03-25T10:30:42.980Z,13.42
2023-03-25T10:33:17.643Z,13.32
2023-03-25T10:35:47.670Z,13.10
2023-03-25T10:38:24.252Z,13.04
2023-03-25T10:40:59.606Z,12.83
2023-03-25T10:43:28.997Z,12.68
2023-03-25T10:45:59.906Z,12.49
2023-03-25T10:48:30.077Z,12.34
2023-03-25T10:51:04.654Z,12.38
2023-03-25T10:53:31.177Z,12.53
2023-03-25T10:56:06.172Z,12.80
2023-03-25T10:58:34.072Z,13.06
2023-03-25T11:01:01.556Z,13.24
2023-03-25T11:03:32.417Z,13.29
2023-03-25T11:05:58.951Z,13.30
2023-03-25T11:08:27.162Z,13.38
2023-03-25T11:10:59.274Z,13.36
2023-03-25T11:13:27.726Z,13.44
2023-03-25T11:15:56.705Z,13.71
2023-03-25T11:18:40.879Z,13.67
2023-03-25T11:21:10.376Z,13.98
2023-03-25T11:23:42.311Z,14.40
2023-03-25T11:26:13.758Z,14.58
2023-03-25T11:28:42.572Z,14.61
2023-03-25T11:31:22.207Z,14.47
2023-03-25T11:34:18.433Z,14.02
2023-03-25T11:36:56.033Z,13.76
2023-03-25T11:39:22.388Z,13.47
2023-03-25T11:41:48.965Z,13.11
2023-03-25T11:44:29.867Z,12.85
2023-03-25T11:47:03.227Z,12.51
2023-03-25T11:49:34.982Z,12.01
2023-03-25T11:52:08.361Z,10.73
2023-03-25T11:54:36.795Z,9.79
2023-03-25T11:57:06.271Z,9.58
2023-03-25T11:59:39.493Z,9.36
2023-03-25T12:02:24.010Z,9.05
2023-03-25T12:05:02.208Z,9.03
2023-03-25T12:07:29.374Z,8.98
2023-03-25T12:10:05.341Z,8.86
2023-03-25T12:12:56.071Z,8.72
2023-03-25T12:15:33.122Z,8.64
2023-03-25T12:18:06.442Z,8.55
2023-03-25T12:20:38.432Z,8.39
2023-03-25T12:23:37.381Z,8.56
2023-03-25T12:26:07.590Z,8.54
2023-03-25T12:29:02.149Z,8.65
2023-03-25T12:31:33.792Z,8.73
2023-03-25T12:34:14.714Z,8.76
2023-03-25T12:36:56.680Z,8.88
2023-03-25T12:39:42.112Z,8.93
2023-03-25T12:42:13.114Z,8.96
2023-03-25T12:44:48.656Z,8.99
2023-03-25T12:47:19.673Z,8.95
2023-03-25T12:49:52.142Z,9.07
2023-03-25T12:52:36.290Z,9.05
2023-03-25T12:55:21.868Z,9.23
2023-03-25T12:58:07.600Z,9.26
2023-03-25T13:01:11.467Z,9.39
2023-03-25T13:03:59.582Z,9.60
2023-03-25T13:06:59.161Z,9.74
2023-03-25T13:09:34.367Z,9.87
2023-03-25T13:12:03.943Z,9.86
2023-03-25T13:14:38.052Z,9.83
2023-03-25T13:17:10.672Z,9.85
2023-03-25T13:19:41.372Z,9.92
2023-03-25T13:22:18.799Z,10.08
2023-03-25T13:24:55.864Z,10.41
2023-03-25T13:27:22.512Z,10.80
2023-03-25T13:29:54.839Z,10.75
2023-03-25T13:32:36.411Z,10.83
2023-03-25T13:35:07.876Z,10.70
2023-03-25T13:37:47.412Z,10.82
2023-03-25T13:40:50.509Z,10.88
2023-03-25T13:43:44.774Z,10.96
2023-03-25T13:46:18.334Z,10.88
2023-03-25T13:49:03.834Z,10.84
2023-03-25T13:51:30.444Z,10.78
2023-03-25T13:54:21.827Z,10.78
2023-03-25T13:57:31.527Z,10.81
2023-03-25T14:00:24.739Z,10.78
2023-03-25T14:03:13.025Z,10.96
2023-03-25T14:06:10.919Z,10.78
2023-03-25T14:09:15.889Z,10.62
2023-03-25T14:12:13.367Z,10.57
2023-03-25T14:15:13.163Z,10.67
2023-03-25T14:17:39.977Z,10.72
2023-03-25T14:20:10.657Z,10.93
2023-03-25T14:22:43.864Z,11.00
2023-03-25T14:25:20.954Z,10.90
2023-03-25T14:27:51.632Z,11.29
2023-03-25T14:30:27.575Z,11.31
2023-03-25T14:32:56.061Z,11.27
2023-03-25T14:35:31.893Z,11.39
2023-03-25T14:38:08.279Z,11.50
2023-03-25T14:41:01.436Z,11.63
2023-03-25T14:43:54.703Z,11.72
2023-03-25T14:46:23.643Z,11.44
2023-03-25T14:48:54.624Z,11.57
2023-03-25T14:51:25.511Z,11.56
2023-03-25T14:54:04.596Z,11.63
2023-03-25T14:56:36.638Z,11.78
2023-03-25T14:59:10.614Z,11.68
2023-03-25T15:01:38.420Z,11.86
2023-03-25T15:04:29.377Z,11.83
2023-03-25T15:06:58.544Z,11.94
2023-03-25T15:09:28.751Z,11.84
2023-03-25T15:11:59.914Z,11.80
2023-03-25T15:14:49.045Z,11.59
2023-03-25T15:17:45.262Z,11.77
2023-03-25T15:20:27.337Z,11.78
2023-03-25T15:23:18.755Z,11.79
2023-03-25T15:25:55.860Z,11.70
2023-03-25T15:28:57.999Z,11.92
2023-03-25T15:31:27.031Z,12.02
2023-03-25T15:34:12.532Z,11.97
2023-03-25T15:36:39.083Z,12.20
2023-03-25T15:39:18.353Z,12.19
2023-03-25T15:41:57.389Z,12.32
2023-03-25T15:44:54.943Z,12.25
2023-03-25T15:47:54.789Z,11.98
2023-03-25T15:50:49.868Z,12.07
2023-03-25T15:53:53.904Z,11.57
2023-03-25T15:56:32.444Z,11.64
2023-03-25T15:59:12.918Z,11.62
2023-03-25T16:01:44.370Z,11.42
2023-03-25T16:04:32.352Z,11.41
2023-03-25T16:06:59.708Z,11.33
2023-03-25T16:09:28.919Z,11.12
2023-03-25T16:12:00.857Z,10.79
2023-03-25T16:14:32.370Z,10.52
2023-03-25T16:17:01.439Z,10.40
2023-03-25T16:19:49.526Z,10.26
2023-03-25T16:22:30.420Z,10.13
2023-03-25T16:24:58.315Z,10.22
2023-03-25T16:27:28.610Z,10.30
2023-03-25T16:29:55.538Z,10.35
2023-03-25T16:32:34.287Z,10.32
2023-03-25T16:35:00.929Z,10.28
2023-03-25T16:37:28.393Z,10.15
2023-03-25T16:39:56.638Z,10.12
2023-03-25T16:42:33.794Z,10.06
2023-03-25T16:45:01.603Z,9.90
2023-03-25T16:47:31.474Z,9.90
2023-03-25T16:50:00.690Z,9.74
2023-03-25T16:52:29.703Z,9.80
2023-03-25T16:54:56.596Z,9.75
2023-03-25T16:57:25.812Z,9.72
2023-03-25T16:59:53.654Z,9.69
2023-03-25T17:02:42.559Z,9.68
2023-03-25T17:05:29.075Z,9.65
2023-03-25T17:08:04.926Z,9.64
2023-03-25T17:10:33.579Z,9.64
2023-03-25T17:13:07.459Z,9.64
2023-03-25T17:15:34.823Z,9.65
2023-03-25T17:18:03.994Z,9.64
2023-03-25T17:20:34.718Z,9.62
2023-03-25T17:23:03.142Z,9.64
2023-03-25T17:25:37.142Z,9.65
2023-03-25T17:28:41.382Z,9.65
2023-03-25T17:31:30.949Z,9.62
2023-03-25T17:34:21.048Z,9.61
2023-03-25T17:36:49.024Z,9.60
2023-03-25T17:39:23.176Z,9.49
2023-03-25T17:41:58.777Z,9.24
2023-03-25T17:44:26.163Z,8.96
2023-03-25T17:46:52.736Z,8.96
2023-03-25T17:49:19.909Z,8.76
2023-03-25T17:51:46.646Z,8.73
2023-03-25T17:54:14.503Z,8.50
2023-03-25T17:56:41.864Z,8.64
2023-03-25T17:59:19.962Z,8.58
2023-03-25T18:01:47.852Z,8.55
2023-03-25T18:04:15.441Z,8.52
2023-03-25T18:06:43.328Z,8.48
2023-03-25T18:09:17.536Z,8.44
2023-03-25T18:11:45.883Z,8.42
2023-03-25T18:14:12.449Z,8.35
2023-03-25T18:16:39.085Z,8.31
2023-03-25T18:19:12.293Z,8.25
2023-03-25T18:21:38.841Z,8.20
2023-03-25T18:24:05.618Z,8.18
2023-03-25T18:26:32.673Z,8.21
2023-03-25T18:28:59.341Z,8.23
2023-03-25T18:31:25.866Z,8.23
2023-03-25T18:33:52.390Z,8.16
2023-03-25T18:36:19.176Z,8.24
2023-03-25T18:38:46.006Z,8.22
2023-03-25T18:41:17.287Z,8.18
2023-03-25T18:43:43.977Z,8.19
2023-03-25T18:46:15.753Z,8.18
2023-03-25T18:48:43.101Z,8.18
2023-03-25T18:51:12.129Z,8.15
2023-03-25T18:53:38.996Z,8.12
2023-03-25T18:56:07.201Z,8.16
2023-03-25T18:58:35.043Z,8.14
2023-03-25T19:01:03.384Z,8.11
2023-03-25T19:03:39.172Z,7.97
2023-03-25T19:06:07.950Z,8.01
2023-03-25T19:08:34.744Z,8.01
2023-03-25T19:11:16.568Z,7.99
2023-03-25T19:13:47.134Z,7.86
2023-03-25T19:16:13.675Z,7.86
2023-03-25T19:18:40.212Z,7.92
2023-03-25T19:21:07.439Z,7.91
2023-03-25T19:23:35.303Z,7.93
2023-03-25T19:26:02.558Z,7.90
2023-03-25T19:28:29.499Z,7.87
2023-03-25T19:31:00.019Z,7.95
2023-03-25T19:33:30.754Z,7.95
2023-03-25T19:35:59.709Z,7.89
2023-03-25T19:38:26.265Z,7.97
2023-03-25T19:41:08.044Z,8.00
2023-03-25T19:43:34.731Z,8.02
2023-03-25T19:46:01.526Z,8.05
2023-03-25T19:48:29.693Z,8.07
2023-03-25T19:50:56.541Z,8.03
2023-03-25T19:53:24.243Z,7.98
2023-03-25T19:55:51.720Z,7.92
2023-03-25T19:58:20.480Z,7.86
2023-03-25T20:00:47.230Z,7.79
2023-03-25T20:03:14.504Z,7.73
2023-03-25T20:05:41.676Z,7.70
2023-03-25T20:08:09.375Z,7.67
2023-03-25T20:10:38.672Z,7.68
2023-03-25T20:13:05.394Z,7.67
2023-03-25T20:15:32.275Z,7.64
2023-03-25T20:17:59.524Z,7.65
2023-03-25T20:20:26.345Z,7.60
2023-03-25T20:22:52.866Z,7.73
2023-03-25T20:25:19.505Z,7.76
2023-03-25T20:27:46.597Z,7.75
2023-03-25T20:30:16.009Z,7.75
2023-03-25T20:32:44.326Z,7.65
2023-03-25T20:35:13.971Z,7.60
2023-03-25T20:37:41.558Z,7.75
2023-03-25T20:40:11.500Z,7.58
2023-03-25T20:42:40.390Z,7.75
2023-03-25T20:45:08.183Z,7.70
2023-03-25T20:47:34.865Z,7.65
2023-03-25T20:50:01.495Z,7.54
2023-03-25T20:52:28.843Z,7.51
2023-03-25T20:54:55.638Z,7.56
2023-03-25T20:57:22.161Z,7.56
2023-03-25T20:59:52.707Z,7.50
2023-03-25T21:02:20.956Z,7.55
2023-03-25T21:04:47.650Z,7.50
2023-03-25T21:07:14.484Z,7.36
2023-03-25T21:09:41.343Z,7.44
2023-03-25T21:12:07.933Z,7.40
2023-03-25T21:14:38.022Z,7.36
2023-03-25T21:17:04.774Z,7.31
2023-03-25T21:19:31.198Z,7.42
2023-03-25T21:21:57.707Z,7.32
2023-03-25T21:24:24.197Z,7.41
2023-03-25T21:26:50.788Z,7.38
2023-03-25T21:29:19.003Z,7.37
2023-03-25T21:31:45.565Z,7.32
2023-03-25T21:34:15.574Z,7.32
2023-03-25T21:36:42.546Z,7.30
2023-03-25T21:39:09.268Z,7.24
2023-03-25T21:41:36.259Z,7.25
2023-03-25T21:44:02.877Z,7.16
2023-03-25T21:46:29.356Z,7.23
2023-03-25T21:48:58.494Z,7.15
2023-03-25T21:51:26.346Z,7.11
2023-03-25T21:53:53.148Z,7.25
2023-03-25T21:56:21.541Z,7.30
2023-03-25T21:58:48.597Z,7.22
2023-03-25T22:01:19.604Z,7.36
2023-03-25T22:03:46.497Z,7.40
2023-03-25T22:06:17.302Z,7.33
2023-03-25T22:08:44.134Z,7.42
2023-03-25T22:11:13.137Z,7.43
2023-03-25T22:13:40.467Z,7.42
2023-03-25T22:16:08.074Z,7.43
2023-03-25T22:18:35.382Z,7.44
2023-03-25T22:21:11.384Z,7.32
2023-03-25T22:23:38.349Z,7.40
2023-03-25T22:26:05.385Z,7.41
2023-03-25T22:28:31.878Z,7.36
2023-03-25T22:30:58.362Z,7.42
2023-03-25T22:33:24.934Z,7.44
2023-03-25T22:35:51.933Z,7.45
2023-03-25T22:38:21.226Z,7.49
2023-03-25T22:40:47.687Z,7.50
2023-03-25T22:43:14.142Z,7.53
2023-03-25T22:45:40.737Z,7.52
2023-03-25T22:48:07.455Z,7.55
2023-03-25T22:50:34.486Z,7.46
2023-03-25T22:53:01.015Z,7.56
2023-03-25T22:55:27.458Z,7.55
2023-03-25T22:57:53.965Z,7.55
2023-03-25T23:00:20.450Z,7.56
2023-03-25T23:02:47.404Z,7.55
2023-03-25T23:05:14.832Z,7.56
2023-03-25T23:07:41.351Z,7.57
2023-03-25T23:10:08.148Z,7.57
2023-03-25T23:12:34.578Z,7.57
2023-03-25T23:15:01.138Z,7.57
2023-03-25T23:17:27.676Z,7.57
2023-03-25T23:19:54.321Z,7.55
2023-03-25T23:22:21.303Z,7.55
2023-03-25T23:24:48.040Z,7.53
2023-03-25T23:27:14.483Z,7.54
2023-03-25T23:29:41.695Z,7.50
2023-03-25T23:32:10.118Z,7.53
2023-03-25T23:34:38.333Z,7.51
2023-03-25T23:37:07.478Z,7.51
2023-03-25T23:39:34.868Z,7.54
2023-03-25T23:42:01.402Z,7.50
2023-03-25T23:44:29.122Z,7.50
2023-03-25T23:46:56.137Z,7.50
2023-03-25T23:49:22.832Z,7.49
2023-03-25T23:51:51.141Z,7.46
2023-03-25T23:54:17.712Z,7.46
2023-03-25T23:56:44.297Z,7.45
2023-03-25T23:59:12.044Z,7.37
